Time;durP1;ratioP1;P1;durP2;ratioP2;P2;SDS_P1;SDS_P2;PMS_P1;PMS_P2;Temp;Humidity;BMP_temperature;BMP_pressure;BME280_temperature;BME280_humidity;BME280_pressure;Samples;Min_cycle;Max_cycle;Signal;HPM_P1;HPM_P2
2021/06/10 00:02:10;;;;;;;4.22;3.47;;;17.30;99.90;;;;;;4977415;28;20045;-74
2021/06/10 00:04:36;;;;;;;7.10;4.40;;;17.30;99.90;;;;;;4975832;28;20027;-76
2021/06/10 00:07:02;;;;;;;9.93;4.82;;;17.30;99.90;;;;;;4976407;28;20039;-79
2021/06/10 00:09:28;;;;;;;6.03;4.22;;;17.30;99.90;;;;;;4977141;28;20084;-73
2021/06/10 00:11:53;;;;;;;6.03;4.45;;;17.30;99.90;;;;;;4976396;28;20058;-73
2021/06/10 00:14:19;;;;;;;6.05;4.60;;;17.20;99.90;;;;;;4976569;28;20049;-73
2021/06/10 00:16:45;;;;;;;5.70;4.45;;;17.20;99.90;;;;;;4974447;28;20089;-72
2021/06/10 00:19:13;;;;;;;4.35;3.83;;;17.20;99.90;;;;;;4975355;28;20038;-72
2021/06/10 00:21:39;;;;;;;7.65;4.10;;;17.10;99.90;;;;;;4976404;28;20070;-73
2021/06/10 00:24:05;;;;;;;5.85;4.25;;;17.10;99.90;;;;;;4975524;28;20026;-77
2021/06/10 00:26:31;;;;;;;5.63;4.28;;;17.10;99.90;;;;;;4977063;28;20443;-83
2021/06/10 00:28:56;;;;;;;9.27;4.43;;;17.10;99.90;;;;;;4975937;28;20073;-82
2021/06/10 00:31:22;;;;;;;7.53;5.35;;;17.00;99.90;;;;;;4976187;28;20085;-78
2021/06/10 00:33:48;;;;;;;4.75;3.97;;;17.00;99.90;;;;;;4971031;28;20066;-78
2021/06/10 00:36:13;;;;;;;5.82;4.32;;;17.00;99.90;;;;;;4976598;28;20034;-79
2021/06/10 00:38:39;;;;;;;5.20;4.25;;;17.00;99.90;;;;;;4976856;28;20129;-78
2021/06/10 00:41:05;;;;;;;4.45;4.05;;;16.90;99.90;;;;;;4976895;28;20387;-74
2021/06/10 00:43:30;;;;;;;5.25;4.75;;;16.90;99.90;;;;;;4974996;28;20022;-77
2021/06/10 00:45:56;;;;;;;6.25;4.10;;;16.90;99.90;;;;;;4974278;28;20050;-77
2021/06/10 00:48:22;;;;;;;6.75;4.13;;;16.80;99.90;;;;;;4974961;28;20515;-77
2021/06/10 00:50:49;;;;;;;5.00;4.45;;;16.80;99.90;;;;;;4975122;28;20027;-76
2021/06/10 00:53:21;;;;;;;7.03;5.45;;;16.80;99.90;;;;;;4976197;28;20027;-77
2021/06/10 00:55:55;;;;;;;5.82;4.38;;;16.80;99.90;;;;;;4976488;28;20361;-77
2021/06/10 00:58:22;;;;;;;5.38;4.30;;;16.80;99.90;;;;;;4976013;28;20038;-77
2021/06/10 01:00:48;;;;;;;5.05;4.03;;;16.70;99.90;;;;;;4974881;28;20093;-75
2021/06/10 01:03:14;;;;;;;5.65;4.43;;;16.70;99.90;;;;;;4976043;28;20029;-76
2021/06/10 01:05:41;;;;;;;6.65;4.80;;;16.70;99.90;;;;;;4974621;28;20519;-77
2021/06/10 01:08:24;;;;;;;7.20;4.43;;;16.70;99.90;;;;;;4975884;28;20069;-77
2021/06/10 01:11:09;;;;;;;7.35;5.40;;;16.70;99.90;;;;;;4975947;28;20070;-77
2021/06/10 01:14:13;;;;;;;6.50;4.70;;;16.60;99.90;;;;;;4974346;28;20030;-77
2021/06/10 01:16:43;;;;;;;9.85;5.28;;;16.60;99.90;;;;;;4975549;28;20030;-74
2021/06/10 01:19:34;;;;;;;5.07;4.50;;;16.50;99.90;;;;;;4955538;28;20055;-77
2021/06/10 01:22:03;;;;;;;5.65;4.50;;;16.50;99.90;;;;;;4972593;28;20023;-75
2021/06/10 01:24:42;;;;;;;6.28;4.90;;;16.50;99.90;;;;;;4975263;28;20592;-76
2021/06/10 01:27:27;;;;;;;11.23;5.22;;;16.40;99.90;;;;;;4974942;28;20027;-77
2021/06/10 01:30:04;;;;;;;10.95;5.13;;;16.40;99.90;;;;;;4975916;28;20109;-78
2021/06/10 01:32:32;;;;;;;5.07;4.57;;;16.40;99.90;;;;;;4969904;28;20484;-76
2021/06/10 01:34:58;;;;;;;4.80;4.38;;;16.40;99.90;;;;;;4975311;28;20395;-77
2021/06/10 01:37:26;;;;;;;4.63;4.22;;;16.40;99.90;;;;;;4962924;28;20106;-77
2021/06/10 01:39:52;;;;;;;9.45;4.70;;;16.40;99.90;;;;;;4975025;28;20035;-76
2021/06/10 01:42:18;;;;;;;6.45;4.30;;;16.40;99.90;;;;;;4975241;28;20019;-76
2021/06/10 01:44:47;;;;;;;5.35;4.70;;;16.40;99.90;;;;;;4974213;28;20089;-75
2021/06/10 01:47:15;;;;;;;5.20;4.70;;;16.40;99.90;;;;;;4974780;28;20019;-77
2021/06/10 01:49:42;;;;;;;6.18;3.90;;;16.40;99.90;;;;;;4974816;28;20054;-75
2021/06/10 01:52:08;;;;;;;4.68;4.28;;;16.40;99.90;;;;;;4974862;28;20380;-76
2021/06/10 01:54:34;;;;;;;8.20;4.85;;;16.40;99.90;;;;;;4974112;28;20037;-77
2021/06/10 01:57:02;;;;;;;7.72;4.38;;;16.40;99.90;;;;;;4974615;28;20114;-78
2021/06/10 01:59:31;;;;;;;6.47;5.07;;;16.30;99.90;;;;;;4975268;28;20030;-77
2021/06/10 02:02:04;;;;;;;5.10;4.60;;;16.30;99.90;;;;;;4974847;28;20114;-77
2021/06/10 02:04:31;;;;;;;7.90;4.70;;;16.30;99.90;;;;;;4973921;28;20022;-76
2021/06/10 02:06:59;;;;;;;5.35;4.70;;;16.30;99.90;;;;;;4974648;28;20415;-77
2021/06/10 02:09:25;;;;;;;7.45;5.18;;;16.20;99.90;;;;;;4974569;28;20065;-74
2021/06/10 02:11:51;;;;;;;6.95;4.45;;;16.20;99.90;;;;;;4973733;28;20027;-75
2021/06/10 02:14:19;;;;;;;6.45;4.43;;;16.20;99.90;;;;;;4974518;28;20499;-75
2021/06/10 02:16:45;;;;;;;;;;;16.20;99.90;;;;;;4973383;28;20026;-76
2021/06/10 02:19:12;;;;;;;5.78;4.03;;;16.10;99.90;;;;;;4973846;28;19960;-75
2021/06/10 02:21:38;;;;;;;7.18;4.10;;;16.10;99.90;;;;;;4973731;28;20034;-75
2021/06/10 02:24:04;;;;;;;8.15;4.20;;;16.10;99.90;;;;;;4974030;28;20380;-76
2021/06/10 02:26:30;;;;;;;8.07;4.97;;;16.10;99.90;;;;;;4973961;28;20027;-75
2021/06/10 02:28:56;;;;;;;5.38;4.55;;;16.10;99.90;;;;;;4972551;28;20034;-75
2021/06/10 02:31:22;;;;;;;6.93;4.18;;;16.00;99.90;;;;;;4973747;28;20062;-76
2021/06/10 02:33:48;;;;;;;5.57;4.65;;;16.00;99.90;;;;;;4973705;28;20542;-74
2021/06/10 02:36:16;;;;;;;5.00;4.60;;;16.00;99.90;;;;;;4971773;28;20047;-75
2021/06/10 02:39:04;;;;;;;7.00;5.03;;;16.00;99.90;;;;;;4973895;28;20427;-75
2021/06/10 02:41:33;;;;;;;8.48;5.00;;;16.00;99.90;;;;;;4974660;28;20034;-75
2021/06/10 02:44:00;;;;;;;8.57;5.30;;;16.00;99.90;;;;;;4974199;28;20035;-75
2021/06/10 02:46:27;;;;;;;4.60;4.20;;;16.10;99.90;;;;;;4973090;28;20038;-74
2021/06/10 02:48:54;;;;;;;6.90;5.45;;;16.20;99.90;;;;;;4973704;28;20508;-74
2021/06/10 02:51:21;;;;;;;5.93;5.33;;;16.30;99.90;;;;;;4970293;28;20039;-75
2021/06/10 02:53:49;;;;;;;6.25;4.85;;;16.40;99.90;;;;;;4973844;28;20058;-74
2021/06/10 02:56:16;;;;;;;4.93;4.43;;;16.50;99.90;;;;;;4972770;28;20027;-74
2021/06/10 02:58:44;;;;;;;9.18;5.93;;;16.50;99.90;;;;;;4973620;28;20479;-74
2021/06/10 03:01:10;;;;;;;;;;;16.50;99.90;;;;;;4973089;28;20051;-75
2021/06/10 03:03:36;;;;;;;5.32;4.60;;;16.60;99.90;;;;;;4987234;28;20426;-75
2021/06/10 03:06:04;;;;;;;7.32;3.95;;;16.60;99.90;;;;;;4971682;28;20165;-74
2021/06/10 03:08:31;;;;;;;4.70;4.30;;;16.60;99.90;;;;;;4969215;28;20581;-75
2021/06/10 03:10:59;;;;;;;5.88;3.63;;;16.60;99.90;;;;;;4973810;28;20090;-75
2021/06/10 03:13:27;;;;;;;5.20;4.70;;;16.60;99.90;;;;;;4971815;28;20377;-75
2021/06/10 03:15:53;;;;;;;6.82;4.95;;;16.60;99.90;;;;;;4973560;28;20035;-75
2021/06/10 03:18:21;;;;;;;6.25;5.60;;;16.60;99.90;;;;;;4973880;28;20058;-74
2021/06/10 03:20:47;;;;;;;5.47;4.97;;;16.70;99.90;;;;;;4970675;28;20117;-75
2021/06/10 03:23:14;;;;;;;11.27;5.88;;;16.70;99.90;;;;;;4972361;28;20030;-75
2021/06/10 03:25:40;;;;;;;7.63;4.37;;;16.70;99.90;;;;;;4973880;28;20031;-75
2021/06/10 03:28:07;;;;;;;8.20;5.80;;;16.70;99.90;;;;;;4973539;28;20035;-75
2021/06/10 03:30:36;;;;;;;8.35;6.47;;;16.70;99.90;;;;;;4973400;28;20059;-75
2021/06/10 03:33:05;;;;;;;10.93;6.68;;;16.80;99.90;;;;;;4974103;28;20392;-74
2021/06/10 03:35:33;;;;;;;9.65;7.35;;;16.80;99.90;;;;;;4975771;28;20039;-75
2021/06/10 03:37:59;;;;;;;9.32;7.05;;;16.80;99.90;;;;;;4975212;28;20041;-75
2021/06/10 03:40:26;;;;;;;10.02;7.63;;;16.80;99.90;;;;;;4975818;28;20395;-75
2021/06/10 03:42:52;;;;;;;10.63;6.93;;;16.80;99.90;;;;;;4975997;28;20487;-74
2021/06/10 03:45:18;;;;;;;7.97;7.15;;;16.90;99.90;;;;;;4977092;28;20042;-75
2021/06/10 03:47:44;;;;;;;11.13;8.82;;;16.90;99.90;;;;;;4968753;28;20038;-75
2021/06/10 03:50:11;;;;;;;14.45;8.65;;;16.90;99.90;;;;;;4975686;28;20039;-75
2021/06/10 03:52:37;;;;;;;8.52;6.88;;;16.90;99.90;;;;;;4977065;28;20314;-75
2021/06/10 03:55:07;;;;;;;10.48;7.63;;;16.90;99.90;;;;;;4976564;28;20480;-75
2021/06/10 03:57:35;;;;;;;12.50;8.70;;;16.90;99.90;;;;;;4973918;28;20118;-75
2021/06/10 04:00:01;;;;;;;10.23;8.45;;;16.90;99.90;;;;;;4974938;28;20023;-75
2021/06/10 04:02:26;;;;;;;13.25;8.07;;;17.00;99.90;;;;;;4974611;28;20022;-75
2021/06/10 04:04:54;;;;;;;12.45;9.77;;;17.00;99.90;;;;;;4974546;28;20057;-75
2021/06/10 04:07:20;;;;;;;;;;;17.00;99.90;;;;;;4975498;28;20034;-74
2021/06/10 04:09:46;;;;;;;10.30;7.47;;;17.00;99.90;;;;;;4976471;28;20286;-75
2021/06/10 04:12:12;;;;;;;10.70;8.48;;;17.00;99.90;;;;;;4975246;28;20031;-75
2021/06/10 04:14:37;;;;;;;11.80;8.80;;;17.00;99.90;;;;;;4974434;28;20049;-75
2021/06/10 04:17:03;;;;;;;14.93;9.63;;;17.00;99.90;;;;;;4976403;28;20452;-74
2021/06/10 04:19:29;;;;;;;11.10;8.25;;;17.00;99.90;;;;;;4973344;28;20038;-74
2021/06/10 04:21:55;;;;;;;11.32;7.97;;;17.10;99.90;;;;;;4976283;28;20030;-74
2021/06/10 04:24:21;;;;;;;13.50;8.43;;;17.10;99.90;;;;;;4975842;28;20085;-75
2021/06/10 04:26:47;;;;;;;12.18;7.38;;;17.20;99.90;;;;;;4976103;28;20459;-74
2021/06/10 04:29:13;;;;;;;12.70;7.15;;;17.20;99.90;;;;;;4976210;28;20153;-74
2021/06/10 04:31:38;;;;;;;9.15;6.72;;;17.20;99.90;;;;;;4975996;28;20511;-75
2021/06/10 04:34:04;;;;;;;9.45;7.22;;;17.20;99.90;;;;;;4975280;28;20026;-74
2021/06/10 04:36:29;;;;;;;12.57;7.50;;;17.20;99.90;;;;;;4975126;28;20027;-75
2021/06/10 04:38:55;;;;;;;10.63;7.18;;;17.30;99.90;;;;;;4975819;28;20023;-75
2021/06/10 04:41:21;;;;;;;10.55;7.15;;;17.20;99.90;;;;;;4975839;28;20387;-75
2021/06/10 04:43:46;;;;;;;10.65;7.15;;;17.30;99.90;;;;;;4976154;28;20023;-75
2021/06/10 04:46:12;;;;;;;8.32;6.68;;;17.20;99.90;;;;;;4975788;28;20042;-75
2021/06/10 04:48:38;;;;;;;12.27;8.02;;;17.30;99.90;;;;;;4973153;28;20027;-75
2021/06/10 04:51:04;;;;;;;10.30;7.78;;;17.30;99.90;;;;;;4975930;28;20435;-76
2021/06/10 04:53:30;;;;;;;12.45;7.68;;;17.40;99.90;;;;;;4975505;28;20077;-74
2021/06/10 04:55:56;;;;;;;14.32;7.80;;;17.50;99.90;;;;;;4974385;28;20098;-76
2021/06/10 04:58:22;;;;;;;11.63;7.13;;;17.60;99.90;;;;;;4975449;28;20045;-74
2021/06/10 05:00:48;;;;;;;15.73;7.97;;;17.60;99.90;;;;;;4975434;28;20038;-75
2021/06/10 05:03:13;;;;;;;8.23;6.97;;;17.60;99.90;;;;;;4975644;28;20027;-75
2021/06/10 05:05:39;;;;;;;9.13;6.28;;;17.70;99.90;;;;;;4974479;28;20137;-74
2021/06/10 05:08:05;;;;;;;8.23;6.22;;;17.70;99.90;;;;;;4975275;28;20027;-75
2021/06/10 05:10:31;;;;;;;9.63;6.25;;;17.80;99.90;;;;;;4974300;28;20117;-75
2021/06/10 05:12:57;;;;;;;12.55;5.88;;;17.80;99.90;;;;;;4975726;28;20077;-74
2021/06/10 05:15:22;;;;;;;7.57;5.68;;;17.90;99.90;;;;;;4974838;28;20039;-75
2021/06/10 05:17:48;;;;;;;11.25;5.80;;;17.90;99.90;;;;;;4975847;28;20015;-74
2021/06/10 05:20:14;;;;;;;10.70;6.20;;;18.00;99.90;;;;;;4974918;28;20182;-75
2021/06/10 05:22:40;;;;;;;8.43;5.97;;;18.00;99.90;;;;;;4974887;28;20056;-75
2021/06/10 05:25:06;;;;;;;7.22;4.55;;;18.10;99.90;;;;;;4973516;28;20106;-75
2021/06/10 05:27:33;;;;;;;7.07;4.82;;;18.20;99.90;;;;;;4974726;28;20019;-75
2021/06/10 05:30:00;;;;;;;3.78;3.47;;;18.30;99.90;;;;;;4975305;28;20071;-75
2021/06/10 05:32:25;;;;;;;5.88;3.80;;;18.40;99.90;;;;;;4973922;28;20045;-75
2021/06/10 05:34:51;;;;;;;5.50;3.92;;;18.50;99.90;;;;;;4973994;28;20031;-75
2021/06/10 05:37:16;;;;;;;6.68;3.50;;;18.60;99.90;;;;;;4973100;28;20041;-75
2021/06/10 05:39:42;;;;;;;6.93;3.25;;;18.70;99.90;;;;;;4974670;28;20031;-75
2021/06/10 05:42:08;;;;;;;4.60;3.55;;;18.70;99.90;;;;;;4972685;28;20093;-74
2021/06/10 05:44:34;;;;;;;6.05;3.38;;;18.80;99.90;;;;;;4973368;28;20464;-75
2021/06/10 05:46:59;;;;;;;5.75;4.05;;;18.90;99.90;;;;;;4974275;28;20014;-75
2021/06/10 05:49:25;;;;;;;3.55;3.00;;;19.00;99.80;;;;;;4974393;28;20047;-75
2021/06/10 05:51:50;;;;;;;4.28;2.85;;;19.10;99.70;;;;;;4971830;28;20467;-74
2021/06/10 05:54:16;;;;;;;3.53;3.20;;;19.20;99.30;;;;;;4973910;28;20527;-74
2021/06/10 05:56:42;;;;;;;6.13;3.22;;;19.30;98.90;;;;;;4973717;28;20380;-75
2021/06/10 05:59:07;;;;;;;4.15;3.10;;;19.40;99.00;;;;;;4974907;28;20019;-74
2021/06/10 06:01:33;;;;;;;6.07;2.95;;;19.80;98.60;;;;;;4974461;28;20058;-75
2021/06/10 06:03:59;;;;;;;4.70;4.22;;;20.30;98.30;;;;;;4974095;28;20023;-74
2021/06/10 06:06:25;;;;;;;3.20;2.90;;;21.20;98.00;;;;;;4974202;28;20023;-75
2021/06/10 06:08:51;;;;;;;3.15;2.80;;;23.40;96.30;;;;;;4974430;28;20022;-74
2021/06/10 06:11:18;;;;;;;3.30;2.65;;;26.00;93.40;;;;;;4974080;28;20476;-75
2021/06/10 06:16:11;;;;;;;5.43;3.33;;;26.60;91.10;;;;;;4973677;28;20037;-75
2021/06/10 06:18:38;;;;;;;3.75;3.25;;;26.90;90.90;;;;;;4973559;28;20035;-74
2021/06/10 06:21:04;;;;;;;4.55;2.88;;;28.30;90.50;;;;;;4971762;28;20035;-75
2021/06/10 06:23:31;;;;;;;7.90;3.70;;;29.80;88.20;;;;;;4972718;28;20027;-75
2021/06/10 06:25:57;;;;;;;5.57;3.75;;;30.90;85.50;;;;;;4973483;28;20486;-75
2021/06/10 06:28:23;;;;;;;3.42;3.10;;;31.80;84.10;;;;;;4974330;28;20158;-75
2021/06/10 06:30:48;;;;;;;4.05;3.53;;;32.50;82.20;;;;;;4973045;28;20031;-73
2021/06/10 06:33:14;;;;;;;8.07;3.35;;;33.00;80.70;;;;;;4972988;28;20046;-73
2021/06/10 06:35:41;;;;;;;8.05;4.43;;;33.20;79.40;;;;;;4974109;28;20484;-74
2021/06/10 06:38:07;;;;;;;8.98;3.53;;;33.20;79.10;;;;;;4973177;28;20023;-74
2021/06/10 06:40:33;;;;;;;8.63;3.83;;;33.50;78.60;;;;;;4981259;28;20067;-76
2021/06/10 06:43:00;;;;;;;4.72;3.55;;;33.50;77.80;;;;;;4979394;28;20033;-78
2021/06/10 06:45:25;;;;;;;4.75;3.58;;;33.30;76.70;;;;;;4977978;28;20105;-73
2021/06/10 06:47:51;;;;;;;5.82;4.40;;;32.70;77.00;;;;;;4974556;28;20448;-74
2021/06/10 06:50:17;;;;;;;4.57;4.07;;;32.40;77.20;;;;;;4974555;28;20053;-75
2021/06/10 06:52:43;;;;;;;5.67;4.70;;;32.10;78.00;;;;;;4974363;28;20039;-74
2021/06/10 06:55:09;;;;;;;7.55;4.72;;;31.70;78.30;;;;;;4971642;28;20034;-74
2021/06/10 06:57:35;;;;;;;4.82;4.32;;;30.80;79.70;;;;;;4973212;28;20437;-74
2021/06/10 07:00:00;;;;;;;5.85;5.03;;;29.50;81.50;;;;;;4965755;28;20042;-74
2021/06/10 07:02:26;;;;;;;8.57;5.35;;;28.00;83.10;;;;;;4973359;28;20038;-75
2021/06/10 07:04:54;;;;;;;5.35;3.78;;;26.80;84.30;;;;;;4973706;28;20055;-74
2021/06/10 07:07:19;;;;;;;4.65;4.03;;;26.30;85.20;;;;;;4972978;28;20038;-74
2021/06/10 07:09:45;;;;;;;5.68;4.28;;;26.40;84.80;;;;;;4977630;28;20035;-74
2021/06/10 07:12:11;;;;;;;4.28;3.67;;;27.10;85.10;;;;;;4982283;28;20039;-74
2021/06/10 07:14:36;;;;;;;5.55;3.30;;;27.70;84.80;;;;;;4975968;28;20022;-74
2021/06/10 07:17:03;;;;;;;7.35;3.47;;;28.50;84.10;;;;;;4976294;28;20053;-75
2021/06/10 07:19:28;;;;;;;4.70;3.50;;;29.30;83.60;;;;;;4977232;28;20026;-75
2021/06/10 07:21:54;;;;;;;4.47;3.30;;;29.80;83.00;;;;;;4978076;28;20080;-74
2021/06/10 07:24:20;;;;;;;2.83;2.63;;;30.40;80.70;;;;;;4975443;28;20035;-74
2021/06/10 07:26:46;;;;;;;6.10;3.47;;;30.60;79.10;;;;;;4976728;28;20059;-74
2021/06/10 07:29:13;;;;;;;4.20;3.80;;;30.80;79.20;;;;;;4976044;28;20023;-74
2021/06/10 07:31:39;;;;;;;4.85;3.25;;;30.50;79.20;;;;;;4977081;28;20038;-74
2021/06/10 07:34:06;;;;;;;3.35;2.90;;;30.20;77.40;;;;;;4977083;28;20369;-74
2021/06/10 07:36:33;;;;;;;3.80;3.13;;;30.20;76.20;;;;;;4977590;28;20061;-74
2021/06/10 07:39:00;;;;;;;6.15;2.70;;;30.00;77.40;;;;;;4974313;28;20077;-74
2021/06/10 07:41:26;;;;;;;4.90;2.78;;;29.80;77.80;;;;;;4977028;28;20031;-76
2021/06/10 07:43:52;;;;;;;4.00;3.03;;;29.20;78.00;;;;;;4977302;28;20030;-77
2021/06/10 07:46:17;;;;;;;6.30;2.75;;;28.80;78.20;;;;;;4977306;28;20019;-75
2021/06/10 07:48:43;;;;;;;4.63;2.50;;;28.30;78.60;;;;;;4976444;28;20023;-74
2021/06/10 07:51:08;;;;;;;3.65;2.60;;;27.80;78.60;;;;;;4976747;28;20065;-74
2021/06/10 07:53:35;;;;;;;2.72;2.40;;;27.50;78.60;;;;;;4976660;28;20097;-75
2021/06/10 07:56:03;;;;;;;3.30;2.97;;;27.40;79.90;;;;;;4977176;28;20539;-75
2021/06/10 07:58:30;;;;;;;3.13;2.53;;;27.30;79.70;;;;;;4975093;28;20066;-74
2021/06/10 08:00:56;;;;;;;4.23;2.60;;;27.40;79.90;;;;;;4977054;28;20046;-73
2021/06/10 08:03:21;;;;;;;5.10;2.35;;;27.30;80.80;;;;;;4977093;28;20337;-75
2021/06/10 08:05:47;;;;;;;3.97;2.83;;;27.40;81.60;;;;;;4977051;28;20027;-75
2021/06/10 08:08:13;;;;;;;2.80;2.50;;;27.50;81.30;;;;;;4976771;28;20023;-74
2021/06/10 08:10:41;;;;;;;2.80;2.60;;;27.90;81.50;;;;;;4977172;28;20034;-74
2021/06/10 08:13:08;;;;;;;;;;;27.50;82.20;;;;;;4976444;28;20278;-72
2021/06/10 08:15:37;;;;;;;4.10;3.17;;;27.30;83.00;;;;;;4991702;28;19949;-73
2021/06/10 08:18:03;;;;;;;4.70;3.42;;;27.70;81.70;;;;;;4976998;28;20027;-75
2021/06/10 08:20:30;;;;;;;6.43;2.70;;;28.00;80.70;;;;;;4974170;28;20446;-78
2021/06/10 08:23:00;;;;;;;8.10;2.60;;;28.30;80.70;;;;;;4974778;28;20049;-75
2021/06/10 08:25:31;;;;;;;3.85;3.33;;;28.20;81.00;;;;;;4961839;28;20081;-75
2021/06/10 08:28:02;;;;;;;8.25;3.95;;;28.30;80.60;;;;;;4966249;28;20027;-75
2021/06/10 08:30:28;;;;;;;7.90;3.67;;;28.00;81.90;;;;;;4976277;28;20030;-76
2021/06/10 08:32:54;;;;;;;8.30;5.27;;;27.50;83.00;;;;;;4975186;28;20085;-74
2021/06/10 08:35:20;;;;;;;3.38;3.08;;;27.70;82.20;;;;;;4982402;28;20038;-80
2021/06/10 08:37:46;;;;;;;5.07;3.95;;;28.10;82.40;;;;;;4975387;28;20035;-75
2021/06/10 08:40:13;;;;;;;4.28;3.88;;;28.10;82.80;;;;;;4975276;28;20407;-75
2021/06/10 08:42:41;;;;;;;7.78;4.00;;;28.30;81.60;;;;;;4976093;28;20047;-75
2021/06/10 08:45:13;;;;;;;5.85;4.00;;;28.80;81.30;;;;;;4974718;28;20023;-77
2021/06/10 08:47:42;;;;;;;5.85;4.10;;;29.10;82.00;;;;;;4976436;28;20041;-76
2021/06/10 08:50:10;;;;;;;4.10;3.70;;;29.30;81.50;;;;;;4976348;28;20057;-76
2021/06/10 08:52:36;;;;;;;5.50;5.00;;;29.70;80.00;;;;;;4976286;28;20111;-75
2021/06/10 08:55:02;;;;;;;5.90;4.00;;;29.80;79.80;;;;;;4979836;28;20066;-77
2021/06/10 08:57:28;;;;;;;9.13;4.45;;;29.70;80.40;;;;;;4975824;28;20085;-75
2021/06/10 08:59:54;;;;;;;6.40;5.47;;;29.50;80.40;;;;;;4976597;28;20423;-76
2021/06/10 09:02:20;;;;;;;4.30;3.70;;;29.40;80.10;;;;;;4971248;28;20081;-76
2021/06/10 09:04:46;;;;;;;6.23;4.53;;;29.60;80.80;;;;;;4966325;28;20018;-76
2021/06/10 09:07:11;;;;;;;5.43;4.43;;;29.80;80.40;;;;;;4975459;28;20389;-78
2021/06/10 09:09:42;;;;;;;9.53;5.43;;;30.20;79.40;;;;;;4974409;28;20078;-78
2021/06/10 09:12:11;;;;;;;7.07;4.88;;;30.30;79.30;;;;;;4965722;28;20476;-78
2021/06/10 09:14:57;;;;;;;7.63;4.88;;;30.20;80.60;;;;;;4968549;28;20113;-75
2021/06/10 09:17:42;;;;;;;9.95;4.20;;;30.30;79.70;;;;;;4984242;28;20031;-76
2021/06/10 09:20:22;;;;;;;6.47;4.15;;;30.20;79.60;;;;;;4972758;28;20471;-76
2021/06/10 09:22:50;;;;;;;4.03;3.55;;;30.00;80.60;;;;;;4975409;28;20023;-75
2021/06/10 09:25:19;;;;;;;5.22;4.25;;;29.60;80.30;;;;;;4974388;28;20129;-76
2021/06/10 09:27:55;;;;;;;10.90;4.65;;;29.00;81.20;;;;;;4973467;28;20037;-79
2021/06/10 09:30:31;;;;;;;5.37;4.87;;;28.90;80.70;;;;;;4968295;28;20027;-75
2021/06/10 09:32:58;;;;;;;7.87;4.37;;;28.50;82.10;;;;;;4971421;28;20187;-74
2021/06/10 09:35:34;;;;;;;4.85;4.22;;;27.70;83.20;;;;;;4972415;28;20535;-76
2021/06/10 09:38:05;;;;;;;5.78;4.18;;;27.60;84.00;;;;;;4976110;28;20431;-76
2021/06/10 09:40:31;;;;;;;7.13;4.38;;;27.50;83.70;;;;;;4975787;28;20102;-75
2021/06/10 09:42:57;;;;;;;6.50;4.13;;;27.00;84.70;;;;;;4974154;28;20027;-73
2021/06/10 09:45:31;;;;;;;11.77;4.75;;;27.10;83.90;;;;;;4974341;28;20092;-74
2021/06/10 09:48:00;;;;;;;7.68;4.60;;;27.30;82.70;;;;;;4975182;28;20023;-74
2021/06/10 09:50:42;;;;;;;8.68;4.25;;;27.30;82.40;;;;;;4975332;28;20039;-75
2021/06/10 09:53:16;;;;;;;7.75;3.03;;;27.50;82.40;;;;;;4975046;28;20031;-72
2021/06/10 09:55:49;;;;;;;5.35;3.50;;;27.90;80.10;;;;;;4975403;28;20034;-74
2021/06/10 09:58:15;;;;;;;8.52;3.55;;;28.30;78.80;;;;;;4972881;28;20066;-70
2021/06/10 10:00:49;;;;;;;7.88;3.28;;;28.40;78.20;;;;;;4973073;28;20063;-72
2021/06/10 10:03:29;;;;;;;4.40;3.38;;;28.70;78.90;;;;;;4974791;28;20102;-73
2021/06/10 10:06:05;;;;;;;3.50;3.20;;;28.90;78.10;;;;;;4974864;28;20093;-71
2021/06/10 10:08:33;;;;;;;6.30;3.55;;;29.30;76.80;;;;;;4975268;28;20030;-73
2021/06/10 10:11:01;;;;;;;5.28;3.03;;;29.30;75.40;;;;;;4974559;28;20132;-73
2021/06/10 10:13:28;;;;;;;3.08;2.05;;;29.30;75.00;;;;;;4974719;28;20031;-74
2021/06/10 10:15:57;;;;;;;5.13;2.88;;;29.50;74.00;;;;;;4973936;28;20026;-73
2021/06/10 10:18:22;;;;;;;5.18;2.72;;;29.60;73.60;;;;;;4974721;28;20045;-73
2021/06/10 10:20:48;;;;;;;3.13;2.22;;;29.80;73.30;;;;;;4974571;28;20383;-74
2021/06/10 10:23:14;;;;;;;4.20;2.50;;;30.00;72.10;;;;;;4974744;28;20025;-74
2021/06/10 10:25:41;;;;;;;7.15;2.60;;;30.10;71.80;;;;;;4973729;28;20439;-75
2021/06/10 10:28:12;;;;;;;4.47;2.45;;;30.30;71.00;;;;;;4974750;28;20038;-72
2021/06/10 10:30:38;;;;;;;7.47;3.30;;;30.30;71.00;;;;;;4972746;28;20101;-75
2021/06/10 10:33:17;;;;;;;;;;;30.00;69.70;;;;;;4975107;28;20073;-74
2021/06/10 10:36:03;;;;;;;2.28;1.98;;;30.00;67.90;;;;;;4975212;28;19917;-73
2021/06/10 10:38:35;;;;;;;4.72;1.70;;;30.20;67.80;;;;;;4973283;28;20396;-73
2021/06/10 10:41:09;;;;;;;2.35;1.73;;;30.60;66.90;;;;;;4973748;28;20125;-72
2021/06/10 10:43:35;;;;;;;1.70;1.60;;;30.60;66.40;;;;;;4975500;28;20054;-73
2021/06/10 10:46:09;;;;;;;4.63;1.50;;;30.60;65.60;;;;;;4977744;28;20039;-73
2021/06/10 10:48:41;;;;;;;2.88;1.45;;;30.20;64.90;;;;;;4990042;28;20049;-73
2021/06/10 10:51:38;;;;;;;1.38;1.23;;;30.10;63.60;;;;;;4978412;28;20074;-73
2021/06/10 10:54:24;;;;;;;1.30;1.20;;;29.90;64.30;;;;;;4977563;28;20042;-73
2021/06/10 10:56:50;;;;;;;;;;;29.80;64.20;;;;;;4977100;28;20035;-73
2021/06/10 10:59:18;;;;;;;1.20;1.10;;;29.50;64.60;;;;;;4976857;28;19964;-72
2021/06/10 11:02:06;;;;;;;1.90;1.80;;;29.20;63.70;;;;;;4977989;28;20487;-71
2021/06/10 11:04:50;;;;;;;2.38;1.58;;;29.10;64.90;;;;;;4977491;28;20045;-71
2021/06/10 11:07:34;;;;;;;1.73;1.63;;;28.90;64.60;;;;;;4976629;28;20027;-70
2021/06/10 11:10:01;;;;;;;2.72;1.30;;;28.60;65.30;;;;;;4976647;28;20030;-73
2021/06/10 11:12:45;;;;;;;2.53;1.65;;;28.30;65.50;;;;;;4977488;28;20075;-70
2021/06/10 11:15:23;;;;;;;12.73;1.80;;;28.20;65.40;;;;;;4977605;28;20534;-71
2021/06/10 11:17:53;;;;;;;2.13;1.92;;;28.20;64.50;;;;;;4974619;28;20038;-73
2021/06/10 11:20:19;;;;;;;2.65;1.90;;;28.20;66.20;;;;;;4977730;28;20399;-78
2021/06/10 11:22:50;;;;;;;3.00;2.67;;;28.20;65.30;;;;;;4976075;28;20027;-78
2021/06/10 11:25:22;;;;;;;2.58;1.70;;;28.20;65.50;;;;;;4977143;28;20061;-77
2021/06/10 11:27:49;;;;;;;1.95;1.85;;;27.80;66.50;;;;;;4977385;28;20045;-78
2021/06/10 11:30:29;;;;;;;1.90;1.80;;;27.90;64.80;;;;;;4978323;28;20034;-76
2021/06/10 11:33:18;;;;;;;1.85;1.73;;;27.90;64.40;;;;;;4969999;28;20274;-80
2021/06/10 11:35:51;;;;;;;2.53;2.33;;;28.10;64.10;;;;;;4963641;28;20047;-73
2021/06/10 11:38:37;;;;;;;3.75;2.38;;;28.20;65.70;;;;;;4976092;28;20030;-75
2021/06/10 11:41:19;;;;;;;3.13;2.70;;;28.20;68.00;;;;;;4978008;28;20534;-79
2021/06/10 11:43:57;;;;;;;5.60;2.05;;;28.30;65.60;;;;;;4976571;28;20042;-80
2021/06/10 11:46:36;;;;;;;3.30;1.63;;;28.40;68.00;;;;;;4977744;28;20057;-77
2021/06/10 11:49:04;;;;;;;1.95;1.70;;;28.50;65.60;;;;;;4977938;28;20062;-80
2021/06/10 11:51:36;;;;;;;4.40;2.30;;;28.60;65.60;;;;;;4977209;28;20073;-80
2021/06/10 11:54:15;;;;;;;2.60;2.30;;;28.70;65.70;;;;;;4977505;28;20514;-81
2021/06/10 11:56:43;;;;;;;2.95;2.38;;;28.70;65.90;;;;;;4976425;28;20026;-80
2021/06/10 11:59:14;;;;;;;7.05;3.25;;;28.70;66.40;;;;;;4977424;28;20030;-79
2021/06/10 12:01:40;;;;;;;6.10;2.65;;;28.70;66.40;;;;;;4977088;28;20066;-78
2021/06/10 12:04:09;;;;;;;4.43;2.97;;;28.70;68.50;;;;;;4978015;28;20495;-78
2021/06/10 12:06:35;;;;;;;3.83;2.90;;;28.70;68.40;;;;;;4992911;28;20038;-78
2021/06/10 12:09:13;;;;;;;6.00;3.72;;;28.70;68.80;;;;;;4977086;28;20035;-77
2021/06/10 12:11:48;;;;;;;5.47;4.47;;;28.90;68.00;;;;;;4976134;28;20122;-78
2021/06/10 12:14:14;;;;;;;7.30;3.83;;;29.10;68.20;;;;;;4977144;28;20035;-79
2021/06/10 12:16:40;;;;;;;4.30;3.70;;;29.20;68.70;;;;;;4976525;28;20045;-79
2021/06/10 12:19:14;;;;;;;4.88;3.65;;;29.20;69.30;;;;;;4975841;28;20034;-81
2021/06/10 12:21:40;;;;;;;8.73;4.60;;;29.30;68.80;;;;;;4977384;28;20109;-79
2021/06/10 12:24:06;;;;;;;8.20;4.80;;;29.20;68.00;;;;;;4976769;28;20134;-78
2021/06/10 12:26:33;;;;;;;8.57;5.03;;;29.20;68.20;;;;;;4990381;28;20041;-79
2021/06/10 12:29:00;;;;;;;;;;;28.60;69.60;;;;;;4975673;28;20022;-77
2021/06/10 12:31:36;;;;;;;4.60;4.10;;;28.60;68.70;;;;;;4976203;28;19914;-81
2021/06/10 12:34:04;;;;;;;;;;;28.80;68.90;;;;;;4977356;28;20455;-80
2021/06/10 12:36:32;;;;;;;7.53;5.18;;;29.00;69.00;;;;;;4977101;28;19910;-77
2021/06/10 12:39:12;;;;;;;8.23;5.20;;;29.10;68.80;;;;;;4975335;28;20106;-78
2021/06/10 12:41:49;;;;;;;5.45;4.93;;;29.10;70.70;;;;;;4974242;28;20042;-77
2021/06/10 12:44:32;;;;;;;8.13;5.28;;;28.90;69.70;;;;;;4975123;28;20023;-77
2021/06/10 12:47:00;;;;;;;9.48;5.43;;;28.80;69.50;;;;;;4974981;28;20125;-77
2021/06/10 12:49:45;;;;;;;7.55;5.70;;;28.30;71.50;;;;;;4975242;28;20057;-77
2021/06/10 12:52:13;;;;;;;6.53;4.90;;;28.00;72.10;;;;;;4975164;28;20042;-79
2021/06/10 12:54:42;;;;;;;9.38;5.72;;;27.90;71.90;;;;;;4975415;28;20039;-77
2021/06/10 12:57:24;;;;;;;11.60;6.05;;;27.90;75.20;;;;;;4976467;28;20027;-75
2021/06/10 12:59:58;;;;;;;6.20;4.75;;;27.90;74.30;;;;;;4969381;28;20031;-77